Terminal Aerodrome Forecast
Issued by NWS

Home | Current Version | Previous Version | Text Only | Print | Product List | Glossary Off
Versions: 1 2 3 4 5 6 7 8 9 10 11 12 13 14 15 16

000
FTUS43 KMPX 222320
TAFAXN
TAF
KAXN 222320Z 2300/2324 18013G19KT P6SM SKC
     FM230700 18014KT P6SM SKC WS020/22045KT
     FM231430 18015G21KT P6SM SKC
     FM231830 19017G25KT P6SM SKC=

USA.gov is the U.S. government's official web portal to all federal, state and local government web resources and services.